Albany, Minnesota
Current Conditions -  °F | °C
As of 4:53 PM on Thursday 23 Oct 2014 (Local Time) from KD39 Reporting Station
Clear Clear  
Wind Chill: 66°   Ceiling: Unl
Heat Index: 66°   Visibility: 10mi
Dew Point: 38°   Wind: 8mph
Humidity: 36%   Direction: 230°SW
Pressure: 29.93"   Gusts: NA
Location:  45.63°N, 94.57°W
Report Text: KD39 232153Z AUTO 23007KT 10SM CLR 19/04 A2993 RMK AO2 T01910035
Loading
Personal Weather Stations






























Interactive Weather Map New forecast layout! Learn more

10-Day Weather Forecast

Advertisements
Track Severe Weather on mobile